sensor_id;sensor_type;location;lat;lon;timestamp;temperature;humidity
12384;DHT22;6256;63.808;20.336;2023-12-22T00:02:06;-2.50;99.90
12384;DHT22;6256;63.808;20.336;2023-12-22T00:04:33;-2.40;99.90
12384;DHT22;6256;63.808;20.336;2023-12-22T00:06:59;-2.40;99.90
12384;DHT22;6256;63.808;20.336;2023-12-22T00:09:24;-2.40;99.90
12384;DHT22;6256;63.808;20.336;2023-12-22T00:11:50;-2.40;99.90
12384;DHT22;6256;63.808;20.336;2023-12-22T00:14:16;-2.40;99.90
12384;DHT22;6256;63.808;20.336;2023-12-22T00:16:41;-2.40;99.90
12384;DHT22;6256;63.808;20.336;2023-12-22T00:19:10;-2.40;99.90
12384;DHT22;6256;63.808;20.336;2023-12-22T00:21:35;-2.40;99.90
12384;DHT22;6256;63.808;20.336;2023-12-22T00:24:01;-2.40;99.90
12384;DHT22;6256;63.808;20.336;2023-12-22T00:26:27;-2.40;99.90
12384;DHT22;6256;63.808;20.336;2023-12-22T00:28:52;-2.30;99.90
12384;DHT22;6256;63.808;20.336;2023-12-22T00:31:19;-2.30;99.90
12384;DHT22;6256;63.808;20.336;2023-12-22T00:33:44;-2.30;99.90
12384;DHT22;6256;63.808;20.336;2023-12-22T00:36:10;-2.30;99.90
12384;DHT22;6256;63.808;20.336;2023-12-22T00:38:36;-2.30;99.90
12384;DHT22;6256;63.808;20.336;2023-12-22T00:41:01;-2.30;99.90
12384;DHT22;6256;63.808;20.336;2023-12-22T00:43:27;-2.30;99.90
12384;DHT22;6256;63.808;20.336;2023-12-22T00:45:53;-2.30;99.90
12384;DHT22;6256;63.808;20.336;2023-12-22T00:48:18;-2.30;99.90
12384;DHT22;6256;63.808;20.336;2023-12-22T00:50:44;-2.30;99.90
12384;DHT22;6256;63.808;20.336;2023-12-22T00:53:10;-2.20;99.90
12384;DHT22;6256;63.808;20.336;2023-12-22T00:55:35;-2.30;99.90
12384;DHT22;6256;63.808;20.336;2023-12-22T00:58:01;-2.20;99.90
12384;DHT22;6256;63.808;20.336;2023-12-22T01:00:27;-2.20;99.90
12384;DHT22;6256;63.808;20.336;2023-12-22T01:02:52;-2.20;99.90
12384;DHT22;6256;63.808;20.336;2023-12-22T01:05:18;-2.20;99.90
12384;DHT22;6256;63.808;20.336;2023-12-22T01:07:44;-2.20;99.90
12384;DHT22;6256;63.808;20.336;2023-12-22T01:10:09;-2.20;99.90
12384;DHT22;6256;63.808;20.336;2023-12-22T01:12:35;-2.20;99.90
12384;DHT22;6256;63.808;20.336;2023-12-22T01:15:01;-2.20;99.90
12384;DHT22;6256;63.808;20.336;2023-12-22T01:17:26;-2.20;99.90
12384;DHT22;6256;63.808;20.336;2023-12-22T01:19:52;-2.10;99.90
12384;DHT22;6256;63.808;20.336;2023-12-22T01:22:18;-2.10;99.90
12384;DHT22;6256;63.808;20.336;2023-12-22T01:24:44;-2.10;99.90
12384;DHT22;6256;63.808;20.336;2023-12-22T01:27:11;-2.10;99.90
12384;DHT22;6256;63.808;20.336;2023-12-22T01:29:40;-2.10;99.90
12384;DHT22;6256;63.808;20.336;2023-12-22T01:32:06;-2.10;99.90
12384;DHT22;6256;63.808;20.336;2023-12-22T01:34:31;-2.10;99.90
12384;DHT22;6256;63.808;20.336;2023-12-22T01:36:57;-2.10;99.90
12384;DHT22;6256;63.808;20.336;2023-12-22T01:39:23;-2.10;99.90
12384;DHT22;6256;63.808;20.336;2023-12-22T01:41:48;-2.10;99.90
12384;DHT22;6256;63.808;20.336;2023-12-22T01:44:17;-2.00;99.90
12384;DHT22;6256;63.808;20.336;2023-12-22T01:46:42;-2.10;99.90
12384;DHT22;6256;63.808;20.336;2023-12-22T01:49:08;-2.00;99.90
12384;DHT22;6256;63.808;20.336;2023-12-22T01:51:35;-2.00;99.90
12384;DHT22;6256;63.808;20.336;2023-12-22T01:54:05;-2.00;99.90
12384;DHT22;6256;63.808;20.336;2023-12-22T01:56:32;-2.00;99.90
12384;DHT22;6256;63.808;20.336;2023-12-22T01:59:00;-2.00;99.90
12384;DHT22;6256;63.808;20.336;2023-12-22T02:01:27;-2.00;99.90
12384;DHT22;6256;63.808;20.336;2023-12-22T02:03:53;-2.00;99.90
12384;DHT22;6256;63.808;20.336;2023-12-22T02:06:20;-2.00;99.90
12384;DHT22;6256;63.808;20.336;2023-12-22T02:08:49;-2.00;99.90
12384;DHT22;6256;63.808;20.336;2023-12-22T02:11:15;-2.00;99.90
12384;DHT22;6256;63.808;20.336;2023-12-22T02:13:45;-1.90;99.90
12384;DHT22;6256;63.808;20.336;2023-12-22T02:16:22;-2.00;99.90
12384;DHT22;6256;63.808;20.336;2023-12-22T02:18:54;-1.90;99.90
12384;DHT22;6256;63.808;20.336;2023-12-22T02:21:20;-1.90;99.90
12384;DHT22;6256;63.808;20.336;2023-12-22T02:23:47;-1.90;99.90
12384;DHT22;6256;63.808;20.336;2023-12-22T02:26:21;-1.90;99.90
12384;DHT22;6256;63.808;20.336;2023-12-22T02:28:50;-2.00;99.90
12384;DHT22;6256;63.808;20.336;2023-12-22T02:31:22;-1.90;99.90
12384;DHT22;6256;63.808;20.336;2023-12-22T02:33:51;-1.90;99.90
12384;DHT22;6256;63.808;20.336;2023-12-22T02:36:20;-1.90;99.90
12384;DHT22;6256;63.808;20.336;2023-12-22T02:38:47;-1.90;99.90
12384;DHT22;6256;63.808;20.336;2023-12-22T02:41:14;-1.90;99.90
12384;DHT22;6256;63.808;20.336;2023-12-22T02:43:39;-1.90;99.90
12384;DHT22;6256;63.808;20.336;2023-12-22T02:46:13;-1.90;99.90
12384;DHT22;6256;63.808;20.336;2023-12-22T02:48:39;-1.80;99.90
12384;DHT22;6256;63.808;20.336;2023-12-22T02:51:05;-1.90;99.90
12384;DHT22;6256;63.808;20.336;2023-12-22T02:53:30;-1.80;99.90
12384;DHT22;6256;63.808;20.336;2023-12-22T02:55:56;-1.80;99.90
12384;DHT22;6256;63.808;20.336;2023-12-22T02:58:22;-1.80;99.90
12384;DHT22;6256;63.808;20.336;2023-12-22T03:00:47;-1.80;99.90
12384;DHT22;6256;63.808;20.336;2023-12-22T03:03:13;-1.80;99.90
12384;DHT22;6256;63.808;20.336;2023-12-22T03:05:39;-1.80;99.90
12384;DHT22;6256;63.808;20.336;2023-12-22T03:08:07;-1.70;99.90
12384;DHT22;6256;63.808;20.336;2023-12-22T03:10:33;-1.70;99.90
12384;DHT22;6256;63.808;20.336;2023-12-22T03:12:58;-1.70;99.90
12384;DHT22;6256;63.808;20.336;2023-12-22T03:15:24;-1.70;99.90
12384;DHT22;6256;63.808;20.336;2023-12-22T03:17:51;-1.70;99.90
12384;DHT22;6256;63.808;20.336;2023-12-22T03:20:16;-1.70;99.90
12384;DHT22;6256;63.808;20.336;2023-12-22T03:22:42;-1.80;99.90
12384;DHT22;6256;63.808;20.336;2023-12-22T03:25:08;-1.70;99.90
12384;DHT22;6256;63.808;20.336;2023-12-22T03:27:34;-1.70;99.90
12384;DHT22;6256;63.808;20.336;2023-12-22T03:30:00;-1.70;99.90
12384;DHT22;6256;63.808;20.336;2023-12-22T03:32:27;-1.70;99.90
12384;DHT22;6256;63.808;20.336;2023-12-22T03:34:52;-1.70;99.90
12384;DHT22;6256;63.808;20.336;2023-12-22T03:37:18;-1.70;99.90
12384;DHT22;6256;63.808;20.336;2023-12-22T03:39:44;-1.70;99.90
12384;DHT22;6256;63.808;20.336;2023-12-22T03:42:09;-1.70;99.90
12384;DHT22;6256;63.808;20.336;2023-12-22T03:44:35;-1.70;99.90
12384;DHT22;6256;63.808;20.336;2023-12-22T03:47:01;-1.60;99.90
12384;DHT22;6256;63.808;20.336;2023-12-22T03:49:26;-1.60;99.90
12384;DHT22;6256;63.808;20.336;2023-12-22T03:51:52;-1.70;99.90
12384;DHT22;6256;63.808;20.336;2023-12-22T03:54:18;-1.60;99.90
12384;DHT22;6256;63.808;20.336;2023-12-22T03:56:43;-1.60;99.90
12384;DHT22;6256;63.808;20.336;2023-12-22T03:59:09;-1.70;99.90
12384;DHT22;6256;63.808;20.336;2023-12-22T04:01:35;-1.70;99.90
12384;DHT22;6256;63.808;20.336;2023-12-22T04:04:01;-1.60;99.90
12384;DHT22;6256;63.808;20.336;2023-12-22T04:06:26;-1.60;99.90
12384;DHT22;6256;63.808;20.336;2023-12-22T04:08:52;-1.60;99.90
12384;DHT22;6256;63.808;20.336;2023-12-22T04:11:18;-1.60;99.90
12384;DHT22;6256;63.808;20.336;2023-12-22T04:13:44;-1.70;99.90
12384;DHT22;6256;63.808;20.336;2023-12-22T04:16:09;-1.60;99.90
12384;DHT22;6256;63.808;20.336;2023-12-22T04:18:35;-1.60;99.90
12384;DHT22;6256;63.808;20.336;2023-12-22T04:21:01;-1.60;99.90
12384;DHT22;6256;63.808;20.336;2023-12-22T04:23:28;-1.60;99.90
12384;DHT22;6256;63.808;20.336;2023-12-22T04:25:53;-1.60;99.90
12384;DHT22;6256;63.808;20.336;2023-12-22T04:28:19;-1.60;99.90
12384;DHT22;6256;63.808;20.336;2023-12-22T04:30:45;-1.60;99.90
12384;DHT22;6256;63.808;20.336;2023-12-22T04:33:11;-1.60;99.90
12384;DHT22;6256;63.808;20.336;2023-12-22T04:35:36;-1.60;99.90
12384;DHT22;6256;63.808;20.336;2023-12-22T04:38:02;-1.60;99.90
12384;DHT22;6256;63.808;20.336;2023-12-22T04:40:28;-1.60;99.90
12384;DHT22;6256;63.808;20.336;2023-12-22T04:42:54;-1.60;99.90
12384;DHT22;6256;63.808;20.336;2023-12-22T04:45:20;-1.60;99.90
12384;DHT22;6256;63.808;20.336;2023-12-22T04:47:46;-1.60;99.90
12384;DHT22;6256;63.808;20.336;2023-12-22T04:50:11;-1.60;99.90
12384;DHT22;6256;63.808;20.336;2023-12-22T04:52:37;-1.60;99.90
12384;DHT22;6256;63.808;20.336;2023-12-22T04:55:03;-1.60;99.90
12384;DHT22;6256;63.808;20.336;2023-12-22T04:57:29;-1.60;99.90
12384;DHT22;6256;63.808;20.336;2023-12-22T04:59:55;-1.60;99.90
12384;DHT22;6256;63.808;20.336;2023-12-22T05:02:20;-1.60;99.90
12384;DHT22;6256;63.808;20.336;2023-12-22T05:04:46;-1.60;99.90
12384;DHT22;6256;63.808;20.336;2023-12-22T05:07:12;-1.60;99.90
12384;DHT22;6256;63.808;20.336;2023-12-22T05:09:37;-1.60;99.90
12384;DHT22;6256;63.808;20.336;2023-12-22T05:12:03;-1.60;99.90
12384;DHT22;6256;63.808;20.336;2023-12-22T05:14:29;-1.60;99.90
12384;DHT22;6256;63.808;20.336;2023-12-22T05:16:55;-1.50;99.90
12384;DHT22;6256;63.808;20.336;2023-12-22T05:19:22;-1.50;99.90
12384;DHT22;6256;63.808;20.336;2023-12-22T05:21:47;-1.50;99.90
12384;DHT22;6256;63.808;20.336;2023-12-22T05:24:15;-1.50;99.90
12384;DHT22;6256;63.808;20.336;2023-12-22T05:26:40;-1.50;99.90
12384;DHT22;6256;63.808;20.336;2023-12-22T05:29:06;-1.50;99.90
12384;DHT22;6256;63.808;20.336;2023-12-22T05:31:33;-1.50;99.90
12384;DHT22;6256;63.808;20.336;2023-12-22T05:34:00;-1.50;99.90
12384;DHT22;6256;63.808;20.336;2023-12-22T05:36:25;-1.40;99.90
12384;DHT22;6256;63.808;20.336;2023-12-22T05:38:51;-1.40;99.90
12384;DHT22;6256;63.808;20.336;2023-12-22T05:41:17;-1.40;99.90
12384;DHT22;6256;63.808;20.336;2023-12-22T05:43:42;-1.40;99.90
12384;DHT22;6256;63.808;20.336;2023-12-22T05:46:08;-1.40;99.90
12384;DHT22;6256;63.808;20.336;2023-12-22T05:48:35;-1.40;99.90
12384;DHT22;6256;63.808;20.336;2023-12-22T05:51:01;-1.40;99.90
12384;DHT22;6256;63.808;20.336;2023-12-22T05:53:28;-1.40;99.90
12384;DHT22;6256;63.808;20.336;2023-12-22T05:55:54;-1.40;99.90
12384;DHT22;6256;63.808;20.336;2023-12-22T05:58:20;-1.40;99.90
12384;DHT22;6256;63.808;20.336;2023-12-22T06:00:45;-1.40;99.90
12384;DHT22;6256;63.808;20.336;2023-12-22T06:03:13;-1.40;99.90
12384;DHT22;6256;63.808;20.336;2023-12-22T06:05:39;-1.40;99.90
12384;DHT22;6256;63.808;20.336;2023-12-22T06:08:05;-1.40;99.90
12384;DHT22;6256;63.808;20.336;2023-12-22T06:10:31;-1.40;99.90
12384;DHT22;6256;63.808;20.336;2023-12-22T06:12:57;-1.40;99.90
12384;DHT22;6256;63.808;20.336;2023-12-22T06:15:23;-1.40;99.90
12384;DHT22;6256;63.808;20.336;2023-12-22T06:17:49;-1.40;99.90
12384;DHT22;6256;63.808;20.336;2023-12-22T06:20:15;-1.30;99.90
12384;DHT22;6256;63.808;20.336;2023-12-22T06:22:41;-1.30;99.90
12384;DHT22;6256;63.808;20.336;2023-12-22T06:25:06;-1.30;99.90
12384;DHT22;6256;63.808;20.336;2023-12-22T06:27:35;-1.30;99.90
12384;DHT22;6256;63.808;20.336;2023-12-22T06:30:04;-1.30;99.90
12384;DHT22;6256;63.808;20.336;2023-12-22T06:32:30;-1.30;99.90
12384;DHT22;6256;63.808;20.336;2023-12-22T06:34:56;-1.30;99.90
12384;DHT22;6256;63.808;20.336;2023-12-22T06:37:21;-1.30;99.90
12384;DHT22;6256;63.808;20.336;2023-12-22T06:39:47;-1.30;99.90
12384;DHT22;6256;63.808;20.336;2023-12-22T06:42:12;-1.20;99.90
12384;DHT22;6256;63.808;20.336;2023-12-22T06:44:41;-1.20;99.90
12384;DHT22;6256;63.808;20.336;2023-12-22T06:47:08;-1.20;99.90
12384;DHT22;6256;63.808;20.336;2023-12-22T06:49:34;-1.30;99.90
12384;DHT22;6256;63.808;20.336;2023-12-22T06:52:00;-1.20;99.90
12384;DHT22;6256;63.808;20.336;2023-12-22T06:54:26;-1.30;99.90
12384;DHT22;6256;63.808;20.336;2023-12-22T06:56:52;-1.30;99.90
12384;DHT22;6256;63.808;20.336;2023-12-22T06:59:18;-1.20;99.90
12384;DHT22;6256;63.808;20.336;2023-12-22T07:01:43;-1.30;99.90
12384;DHT22;6256;63.808;20.336;2023-12-22T07:04:09;-1.30;99.90
12384;DHT22;6256;63.808;20.336;2023-12-22T07:06:35;-1.30;99.90
12384;DHT22;6256;63.808;20.336;2023-12-22T07:14:14;-1.20;99.90
12384;DHT22;6256;63.808;20.336;2023-12-22T07:16:41;-1.20;99.90
12384;DHT22;6256;63.808;20.336;2023-12-22T07:19:10;-1.20;99.90
12384;DHT22;6256;63.808;20.336;2023-12-22T07:21:41;-1.20;99.90
12384;DHT22;6256;63.808;20.336;2023-12-22T07:24:10;-1.20;99.90
12384;DHT22;6256;63.808;20.336;2023-12-22T07:26:35;-1.20;99.90
12384;DHT22;6256;63.808;20.336;2023-12-22T07:29:01;-1.20;99.90
12384;DHT22;6256;63.808;20.336;2023-12-22T07:31:27;-1.20;99.90
12384;DHT22;6256;63.808;20.336;2023-12-22T07:33:53;-1.20;99.90
12384;DHT22;6256;63.808;20.336;2023-12-22T07:36:19;-1.20;99.90
12384;DHT22;6256;63.808;20.336;2023-12-22T07:38:46;-1.10;99.90
12384;DHT22;6256;63.808;20.336;2023-12-22T07:41:12;-1.20;99.90
12384;DHT22;6256;63.808;20.336;2023-12-22T07:43:37;-1.10;99.90
12384;DHT22;6256;63.808;20.336;2023-12-22T07:46:03;-1.10;99.90
12384;DHT22;6256;63.808;20.336;2023-12-22T07:48:29;-1.10;99.90
12384;DHT22;6256;63.808;20.336;2023-12-22T07:50:54;-1.10;99.90
12384;DHT22;6256;63.808;20.336;2023-12-22T07:53:20;-1.10;99.90
12384;DHT22;6256;63.808;20.336;2023-12-22T07:55:46;-1.10;99.90
12384;DHT22;6256;63.808;20.336;2023-12-22T07:58:12;-1.10;99.90
12384;DHT22;6256;63.808;20.336;2023-12-22T08:00:38;-1.10;99.90
12384;DHT22;6256;63.808;20.336;2023-12-22T08:03:04;-1.10;99.90
12384;DHT22;6256;63.808;20.336;2023-12-22T08:05:30;-1.10;99.90
12384;DHT22;6256;63.808;20.336;2023-12-22T08:07:56;-1.00;99.90
12384;DHT22;6256;63.808;20.336;2023-12-22T08:10:21;-1.00;99.90
12384;DHT22;6256;63.808;20.336;2023-12-22T08:12:47;-1.00;99.90
12384;DHT22;6256;63.808;20.336;2023-12-22T08:15:13;-1.00;99.90
12384;DHT22;6256;63.808;20.336;2023-12-22T08:17:49;-1.00;99.90
12384;DHT22;6256;63.808;20.336;2023-12-22T08:20:18;-1.00;99.90
12384;DHT22;6256;63.808;20.336;2023-12-22T08:22:47;-1.00;99.90
12384;DHT22;6256;63.808;20.336;2023-12-22T08:25:13;-1.00;99.90
12384;DHT22;6256;63.808;20.336;2023-12-22T08:27:39;-1.00;99.90
12384;DHT22;6256;63.808;20.336;2023-12-22T08:30:06;-0.90;99.90
12384;DHT22;6256;63.808;20.336;2023-12-22T08:32:31;-0.90;99.90
12384;DHT22;6256;63.808;20.336;2023-12-22T08:34:57;-0.90;99.90
12384;DHT22;6256;63.808;20.336;2023-12-22T08:37:23;-0.90;99.90
12384;DHT22;6256;63.808;20.336;2023-12-22T08:39:49;-0.90;99.90
12384;DHT22;6256;63.808;20.336;2023-12-22T08:42:19;-0.90;99.90
12384;DHT22;6256;63.808;20.336;2023-12-22T08:44:44;-0.90;99.90
12384;DHT22;6256;63.808;20.336;2023-12-22T08:47:10;-0.90;99.90
12384;DHT22;6256;63.808;20.336;2023-12-22T08:49:36;-0.90;99.90
12384;DHT22;6256;63.808;20.336;2023-12-22T08:52:01;-0.90;99.90
12384;DHT22;6256;63.808;20.336;2023-12-22T08:54:29;-1.10;99.90
12384;DHT22;6256;63.808;20.336;2023-12-22T08:56:55;-1.20;99.90
12384;DHT22;6256;63.808;20.336;2023-12-22T08:59:21;-1.30;99.90
12384;DHT22;6256;63.808;20.336;2023-12-22T09:01:46;-1.40;99.90
12384;DHT22;6256;63.808;20.336;2023-12-22T09:04:12;-1.60;99.90
12384;DHT22;6256;63.808;20.336;2023-12-22T09:06:38;-1.80;99.90
12384;DHT22;6256;63.808;20.336;2023-12-22T09:09:04;-1.80;99.90
12384;DHT22;6256;63.808;20.336;2023-12-22T09:11:29;-2.00;99.90
12384;DHT22;6256;63.808;20.336;2023-12-22T09:13:55;-2.00;99.90
12384;DHT22;6256;63.808;20.336;2023-12-22T09:16:22;-2.10;99.90
12384;DHT22;6256;63.808;20.336;2023-12-22T09:18:50;-2.10;99.90
12384;DHT22;6256;63.808;20.336;2023-12-22T09:21:17;-2.10;99.90
12384;DHT22;6256;63.808;20.336;2023-12-22T09:23:44;-2.20;99.90
12384;DHT22;6256;63.808;20.336;2023-12-22T09:26:12;-2.30;99.90
12384;DHT22;6256;63.808;20.336;2023-12-22T09:28:38;-2.30;99.90
12384;DHT22;6256;63.808;20.336;2023-12-22T09:31:04;-2.40;99.90
12384;DHT22;6256;63.808;20.336;2023-12-22T09:33:31;-2.30;99.90
12384;DHT22;6256;63.808;20.336;2023-12-22T09:35:57;-2.40;99.90
12384;DHT22;6256;63.808;20.336;2023-12-22T09:38:22;-2.40;99.90
12384;DHT22;6256;63.808;20.336;2023-12-22T09:40:52;-2.50;99.90
12384;DHT22;6256;63.808;20.336;2023-12-22T09:43:19;-2.50;99.90
12384;DHT22;6256;63.808;20.336;2023-12-22T09:45:52;-2.50;99.90
12384;DHT22;6256;63.808;20.336;2023-12-22T09:48:18;-2.60;99.90
12384;DHT22;6256;63.808;20.336;2023-12-22T09:50:52;-2.60;99.90
12384;DHT22;6256;63.808;20.336;2023-12-22T09:53:20;-2.70;99.90
12384;DHT22;6256;63.808;20.336;2023-12-22T09:55:46;-2.70;99.90
12384;DHT22;6256;63.808;20.336;2023-12-22T09:58:13;-2.70;99.90
12384;DHT22;6256;63.808;20.336;2023-12-22T10:00:40;-2.70;99.90
12384;DHT22;6256;63.808;20.336;2023-12-22T10:03:07;-2.80;99.90
12384;DHT22;6256;63.808;20.336;2023-12-22T10:05:34;-2.80;99.90
12384;DHT22;6256;63.808;20.336;2023-12-22T10:08:00;-2.80;99.90
12384;DHT22;6256;63.808;20.336;2023-12-22T10:10:29;-2.80;99.90
12384;DHT22;6256;63.808;20.336;2023-12-22T10:12:56;-2.80;99.90
12384;DHT22;6256;63.808;20.336;2023-12-22T10:15:23;-2.90;99.90
12384;DHT22;6256;63.808;20.336;2023-12-22T10:17:52;-2.80;99.90
12384;DHT22;6256;63.808;20.336;2023-12-22T10:20:18;-2.90;99.90
12384;DHT22;6256;63.808;20.336;2023-12-22T10:22:44;-2.90;99.90
12384;DHT22;6256;63.808;20.336;2023-12-22T10:25:10;-2.90;99.90
12384;DHT22;6256;63.808;20.336;2023-12-22T10:27:36;-2.90;99.90
12384;DHT22;6256;63.808;20.336;2023-12-22T10:30:03;-3.00;99.90
12384;DHT22;6256;63.808;20.336;2023-12-22T10:32:29;-3.00;99.90
12384;DHT22;6256;63.808;20.336;2023-12-22T10:34:56;-3.00;99.90
12384;DHT22;6256;63.808;20.336;2023-12-22T10:37:24;-3.00;99.90
12384;DHT22;6256;63.808;20.336;2023-12-22T10:39:54;-3.00;99.90
12384;DHT22;6256;63.808;20.336;2023-12-22T10:42:20;-3.10;99.90
12384;DHT22;6256;63.808;20.336;2023-12-22T10:44:46;-3.10;99.90
12384;DHT22;6256;63.808;20.336;2023-12-22T10:47:13;-3.10;99.90
12384;DHT22;6256;63.808;20.336;2023-12-22T10:49:39;-3.10;99.90
12384;DHT22;6256;63.808;20.336;2023-12-22T10:52:05;-3.10;99.90
12384;DHT22;6256;63.808;20.336;2023-12-22T10:54:31;-3.10;99.90
12384;DHT22;6256;63.808;20.336;2023-12-22T10:57:00;-3.10;99.90
12384;DHT22;6256;63.808;20.336;2023-12-22T10:59:29;-3.10;99.90
12384;DHT22;6256;63.808;20.336;2023-12-22T11:01:57;-3.10;99.90
12384;DHT22;6256;63.808;20.336;2023-12-22T11:04:29;-3.10;99.90
12384;DHT22;6256;63.808;20.336;2023-12-22T11:06:57;-3.10;99.90
12384;DHT22;6256;63.808;20.336;2023-12-22T11:09:24;-3.10;99.90
12384;DHT22;6256;63.808;20.336;2023-12-22T11:11:51;-3.20;99.90
12384;DHT22;6256;63.808;20.336;2023-12-22T11:14:19;-3.20;99.90
12384;DHT22;6256;63.808;20.336;2023-12-22T11:16:47;-3.30;99.90
12384;DHT22;6256;63.808;20.336;2023-12-22T11:19:14;-3.30;99.90
12384;DHT22;6256;63.808;20.336;2023-12-22T11:21:40;-3.40;99.90
12384;DHT22;6256;63.808;20.336;2023-12-22T11:24:07;-3.40;99.90
12384;DHT22;6256;63.808;20.336;2023-12-22T11:26:33;-3.40;99.90
12384;DHT22;6256;63.808;20.336;2023-12-22T11:29:02;-3.40;99.90
12384;DHT22;6256;63.808;20.336;2023-12-22T11:31:31;-3.40;99.90
12384;DHT22;6256;63.808;20.336;2023-12-22T11:33:58;-3.40;99.90
12384;DHT22;6256;63.808;20.336;2023-12-22T11:36:27;-3.50;99.90
12384;DHT22;6256;63.808;20.336;2023-12-22T11:38:54;-3.50;99.90
12384;DHT22;6256;63.808;20.336;2023-12-22T11:41:32;-3.50;99.90
12384;DHT22;6256;63.808;20.336;2023-12-22T11:44:00;-3.50;99.90
12384;DHT22;6256;63.808;20.336;2023-12-22T11:46:27;-3.50;99.90
12384;DHT22;6256;63.808;20.336;2023-12-22T11:48:52;-3.60;99.90
12384;DHT22;6256;63.808;20.336;2023-12-22T11:51:19;-3.60;99.90
12384;DHT22;6256;63.808;20.336;2023-12-22T11:53:46;-3.60;99.90
12384;DHT22;6256;63.808;20.336;2023-12-22T11:56:12;-3.60;99.90
12384;DHT22;6256;63.808;20.336;2023-12-22T11:58:43;-3.60;99.90
12384;DHT22;6256;63.808;20.336;2023-12-22T12:01:17;-3.70;99.90
12384;DHT22;6256;63.808;20.336;2023-12-22T12:03:55;-3.70;99.90
12384;DHT22;6256;63.808;20.336;2023-12-22T12:08:54;-3.80;99.90
12384;DHT22;6256;63.808;20.336;2023-12-22T12:12:08;-3.80;99.90
12384;DHT22;6256;63.808;20.336;2023-12-22T12:14:13;-3.80;99.90
12384;DHT22;6256;63.808;20.336;2023-12-22T12:16:40;-3.80;99.90
12384;DHT22;6256;63.808;20.336;2023-12-22T12:19:10;-3.80;99.90
12384;DHT22;6256;63.808;20.336;2023-12-22T12:21:36;-3.90;99.90
12384;DHT22;6256;63.808;20.336;2023-12-22T12:24:03;-3.90;99.90
12384;DHT22;6256;63.808;20.336;2023-12-22T12:26:32;-3.90;99.90
12384;DHT22;6256;63.808;20.336;2023-12-22T12:28:58;-3.90;99.90
12384;DHT22;6256;63.808;20.336;2023-12-22T12:31:36;-3.90;99.90
12384;DHT22;6256;63.808;20.336;2023-12-22T12:34:05;-3.90;99.90
12384;DHT22;6256;63.808;20.336;2023-12-22T12:36:40;-4.00;99.90
12384;DHT22;6256;63.808;20.336;2023-12-22T12:39:07;-4.00;99.90
12384;DHT22;6256;63.808;20.336;2023-12-22T12:41:37;-4.00;99.90
12384;DHT22;6256;63.808;20.336;2023-12-22T12:44:06;-4.00;99.90
12384;DHT22;6256;63.808;20.336;2023-12-22T12:46:39;-4.10;99.90
12384;DHT22;6256;63.808;20.336;2023-12-22T12:49:06;-4.10;99.90
12384;DHT22;6256;63.808;20.336;2023-12-22T12:51:39;-4.10;99.90
12384;DHT22;6256;63.808;20.336;2023-12-22T12:54:06;-4.10;99.90
12384;DHT22;6256;63.808;20.336;2023-12-22T12:56:41;-4.10;99.90
12384;DHT22;6256;63.808;20.336;2023-12-22T12:59:11;-4.10;99.90
12384;DHT22;6256;63.808;20.336;2023-12-22T13:01:44;-4.10;99.90
12384;DHT22;6256;63.808;20.336;2023-12-22T13:04:11;-4.20;99.90
12384;DHT22;6256;63.808;20.336;2023-12-22T13:06:47;-4.20;99.90
12384;DHT22;6256;63.808;20.336;2023-12-22T13:09:13;-4.30;99.90
12384;DHT22;6256;63.808;20.336;2023-12-22T13:11:40;-4.30;99.90
12384;DHT22;6256;63.808;20.336;2023-12-22T13:14:08;-4.30;99.90
12384;DHT22;6256;63.808;20.336;2023-12-22T13:16:34;-4.20;99.90
12384;DHT22;6256;63.808;20.336;2023-12-22T13:19:00;-4.30;99.90
12384;DHT22;6256;63.808;20.336;2023-12-22T13:21:28;-4.30;99.90
12384;DHT22;6256;63.808;20.336;2023-12-22T13:24:14;-4.30;99.90
12384;DHT22;6256;63.808;20.336;2023-12-22T13:26:41;-4.30;99.90
12384;DHT22;6256;63.808;20.336;2023-12-22T13:29:08;-4.30;99.90
12384;DHT22;6256;63.808;20.336;2023-12-22T13:31:42;-4.30;99.90
12384;DHT22;6256;63.808;20.336;2023-12-22T13:34:12;-4.30;99.90
12384;DHT22;6256;63.808;20.336;2023-12-22T13:36:39;-4.40;99.90
12384;DHT22;6256;63.808;20.336;2023-12-22T13:39:05;-4.50;99.90
12384;DHT22;6256;63.808;20.336;2023-12-22T13:41:38;-4.50;99.90
12384;DHT22;6256;63.808;20.336;2023-12-22T13:44:10;-4.50;99.90
12384;DHT22;6256;63.808;20.336;2023-12-22T13:46:36;-4.50;99.90
12384;DHT22;6256;63.808;20.336;2023-12-22T13:49:10;-4.60;99.90
12384;DHT22;6256;63.808;20.336;2023-12-22T13:51:40;-4.60;99.90
12384;DHT22;6256;63.808;20.336;2023-12-22T13:54:06;-4.70;99.90
12384;DHT22;6256;63.808;20.336;2023-12-22T13:56:39;-4.70;99.90
12384;DHT22;6256;63.808;20.336;2023-12-22T13:59:08;-4.80;99.90
12384;DHT22;6256;63.808;20.336;2023-12-22T14:01:34;-4.80;99.90
12384;DHT22;6256;63.808;20.336;2023-12-22T14:04:00;-4.90;99.90
12384;DHT22;6256;63.808;20.336;2023-12-22T14:06:26;-5.00;99.90
12384;DHT22;6256;63.808;20.336;2023-12-22T14:08:53;-5.00;99.90
12384;DHT22;6256;63.808;20.336;2023-12-22T14:11:22;-5.10;99.90
12384;DHT22;6256;63.808;20.336;2023-12-22T14:13:48;-5.10;99.90
12384;DHT22;6256;63.808;20.336;2023-12-22T14:16:14;-5.20;99.90
12384;DHT22;6256;63.808;20.336;2023-12-22T14:18:43;-5.20;99.90
12384;DHT22;6256;63.808;20.336;2023-12-22T14:21:09;-5.30;99.90
12384;DHT22;6256;63.808;20.336;2023-12-22T14:23:35;-5.30;99.90
12384;DHT22;6256;63.808;20.336;2023-12-22T14:26:00;-5.30;99.90
12384;DHT22;6256;63.808;20.336;2023-12-22T14:28:26;-5.40;99.90
12384;DHT22;6256;63.808;20.336;2023-12-22T14:30:53;-5.40;99.90
12384;DHT22;6256;63.808;20.336;2023-12-22T14:33:18;-5.50;99.90
12384;DHT22;6256;63.808;20.336;2023-12-22T14:35:44;-5.50;99.90
12384;DHT22;6256;63.808;20.336;2023-12-22T14:38:10;-5.50;99.90
12384;DHT22;6256;63.808;20.336;2023-12-22T14:40:35;-5.60;99.90
12384;DHT22;6256;63.808;20.336;2023-12-22T14:43:01;-5.60;99.90
12384;DHT22;6256;63.808;20.336;2023-12-22T14:45:27;-5.60;99.90
12384;DHT22;6256;63.808;20.336;2023-12-22T14:47:53;-5.60;99.90
12384;DHT22;6256;63.808;20.336;2023-12-22T14:50:19;-5.60;99.90
12384;DHT22;6256;63.808;20.336;2023-12-22T14:52:45;-5.70;99.90
12384;DHT22;6256;63.808;20.336;2023-12-22T14:55:11;-5.70;99.90
12384;DHT22;6256;63.808;20.336;2023-12-22T14:57:36;-5.70;99.90
12384;DHT22;6256;63.808;20.336;2023-12-22T15:00:05;-5.80;99.90
12384;DHT22;6256;63.808;20.336;2023-12-22T15:02:31;-5.80;99.90
12384;DHT22;6256;63.808;20.336;2023-12-22T15:04:57;-5.80;99.90
12384;DHT22;6256;63.808;20.336;2023-12-22T15:07:23;-5.90;99.90
12384;DHT22;6256;63.808;20.336;2023-12-22T15:09:48;-5.90;99.90
12384;DHT22;6256;63.808;20.336;2023-12-22T15:12:17;-5.90;99.90
12384;DHT22;6256;63.808;20.336;2023-12-22T15:14:46;-5.90;99.90
12384;DHT22;6256;63.808;20.336;2023-12-22T15:17:13;-5.90;99.90
12384;DHT22;6256;63.808;20.336;2023-12-22T15:19:43;-5.90;99.90
12384;DHT22;6256;63.808;20.336;2023-12-22T15:22:09;-5.90;99.90
12384;DHT22;6256;63.808;20.336;2023-12-22T15:24:40;-5.90;99.90
12384;DHT22;6256;63.808;20.336;2023-12-22T15:27:12;-6.00;99.90
12384;DHT22;6256;63.808;20.336;2023-12-22T15:29:38;-6.10;99.90
12384;DHT22;6256;63.808;20.336;2023-12-22T15:32:04;-6.10;99.90
12384;DHT22;6256;63.808;20.336;2023-12-22T15:34:30;-6.10;99.90
12384;DHT22;6256;63.808;20.336;2023-12-22T15:36:56;-6.20;99.90